Latest Weather Observations for Warragul (Nilma North)

IDV60801

Issued at 9:32 pm EST Thursday 20 June 2019 (issued every 10 minutes, with the page automatically refreshed every 10 minutes)

About weather observations | Map of weather stations | Latest weather observations for VIC | Other Formats
Station Details ID: 085313 Name: NILMA NORTH (WARRAGUL) Lat: -38.13 Lon: 145.99 Height: 134.11 m
Data from the previous 72 hours. | See also: Recent months for locations in Victoria
Date/Time
EST
Temp
°C
App
Temp
°C
Dew
Point
°C
Rel
Hum
%
Delta-T
°C
Wind Press
QNH
hPa
Press
MSL
hPa
Rain since
9am
mm
Dir  Spd
km/h
Gust
km/h
Spd
kts
Gust
kts
20/09:30pm 5.8 4.1 5.8 100 0.0 WNW 4 6 2 3 1025.6 1025.8 1.8
20/09:00pm 5.8 4.1 5.8 100 0.0 WNW 4 6 2 3 1025.6 1025.8 1.8
20/08:30pm 6.3 4.3 6.3 100 0.0 WNW 6 7 3 4 1025.6 1025.8 1.8
20/08:00pm 6.3 5.0 6.2 99 0.0 WNW 2 4 1 2 1025.5 1025.7 1.8
20/07:30pm 6.2 4.2 6.1 99 0.0 WNW 6 9 3 5 1025.2 1025.4 1.6
20/07:00pm 6.1 4.0 5.8 98 0.1 NW 6 7 3 4 1025.0 1025.2 1.4
20/06:30pm 6.5 4.9 6.4 99 0.0 NW 4 6 2 3 1024.8 1025.0 1.4
20/06:00pm 6.7 4.8 6.7 100 0.0 WNW 6 9 3 5 1024.6 1024.8 1.4
20/05:30pm 6.7 4.5 6.3 97 0.2 WNW 7 11 4 6 1024.3 1024.5 1.2
20/05:00pm 7.5 5.9 6.4 93 0.5 WSW 4 6 2 3 1024.3 1024.5 1.0
20/04:30pm 7.8 5.2 5.9 88 0.9 W 9 13 5 7 1024.0 1024.2 0.6
20/04:00pm 8.3 5.0 6.4 88 0.9 W 13 19 7 10 1023.8 1024.0 0.6
20/03:30pm 9.3 6.2 7.3 87 1.0 W 13 19 7 10 1023.7 1023.9 0.6
20/03:00pm 9.6 7.3 7.4 86 1.0 WNW 9 15 5 8 1023.7 1023.9 0.6
20/02:30pm 9.7 7.4 7.5 86 1.1 WNW 9 13 5 7 1023.7 1023.9 0.6
20/02:00pm 8.9 6.7 7.7 92 0.6 W 9 13 5 7 1023.7 1023.9 0.6
20/01:30pm 8.6 6.8 7.8 95 0.4 W 7 13 4 7 1024.1 1024.3 0.6
20/01:00pm 8.3 6.7 8.2 99 0.0 NW 6 9 3 5 1024.2 1024.4 0.6
20/12:30pm 8.2 6.4 7.8 97 0.2 W 7 13 4 7 1024.7 1024.9 0.2
20/12:00pm 8.2 6.5 7.4 95 0.4 W 6 11 3 6 1025.1 1025.3 0.0
20/11:30am 7.4 6.0 7.4 100 0.0 W 4 6 2 3 1025.5 1025.7 0.0
20/11:00am 7.0 5.9 7.0 100 0.0 SSW 2 2 1 1 1025.8 1026.0 0.0
20/10:30am 6.8 5.7 6.8 100 0.0 SSW 2 4 1 2 1025.9 1026.1 0.0
20/10:00am 6.4 5.6 6.4 100 0.0 CALM 0 0 0 0 1025.9 1026.1 0.0
20/09:30am 6.3 5.1 6.3 100 0.0 SW 2 4 1 2 1025.9 1026.1 0.0
20/09:00am 6.0 5.1 6.0 100 0.0 CALM 0 0 0 0 1025.7 1025.9 1.0
20/08:30am 5.6 4.2 5.6 100 0.0 E 2 6 1 3 1025.6 1025.8 0.8
20/08:00am 5.4 4.4 5.4 100 0.0 CALM 0 0 0 0 1025.6 1025.8 0.8
20/07:30am 5.2 4.1 5.2 100 0.0 CALM 0 0 0 0 1025.6 1025.8 0.8
20/07:00am 5.2 4.1 5.2 100 0.0 CALM 0 0 0 0 1025.4 1025.6 0.8
20/06:30am 5.0 3.9 5.0 100 0.0 CALM 0 0 0 0 1025.3 1025.5 0.8
20/06:00am 4.7 3.5 4.7 100 0.0 CALM 0 0 0 0 1025.1 1025.3 0.8
20/05:30am 4.6 3.0 4.6 100 0.0 ESE 2 4 1 2 1025.0 1025.2 0.8
20/05:00am 4.5 2.9 4.5 100 0.0 WNW 2 6 1 3 1025.0 1025.2 0.8
20/04:30am 4.4 3.2 4.4 100 0.0 CALM 0 0 0 0 1024.9 1025.1 0.8
20/04:00am 4.3 3.0 4.3 100 0.0 CALM 0 0 0 0 1025.0 1025.2 0.8
20/03:30am 3.8 2.4 3.8 100 0.0 CALM 0 0 0 0 1025.0 1025.2 0.8
20/03:00am 3.9 2.2 3.9 100 0.0 NNE 2 4 1 2 1025.2 1025.4 0.8
20/02:30am 3.4 2.0 3.4 100 0.0 CALM 0 0 0 0 1025.3 1025.5 0.8
20/02:00am 3.9 1.8 3.9 100 0.0 SSW 4 9 2 5 1025.5 1025.7 0.8
20/01:30am 3.5 1.3 3.5 100 0.0 WNW 4 4 2 2 1025.6 1025.8 0.8
20/01:00am 3.9 1.8 3.9 100 0.0 NNW 4 6 2 3 1025.5 1025.7 0.8
20/12:30am 4.5 3.3 4.5 100 0.0 CALM 0 0 0 0 1025.7 1025.9 0.8
20/12:00am 3.6 1.8 3.6 100 0.0 ESE 2 6 1 3 1025.8 1026.0 0.8
 
Date/Time
EST
Temp
°C
App
Temp
°C
Dew
Point
°C
Rel
Hum
%
Delta-T
°C
Wind Press
QNH
hPa
Press
MSL
hPa
Rain since
9am
mm
Dir  Spd
km/h
Gust
km/h
Spd
kts
Gust
kts
19/11:30pm 4.3 2.7 4.3 100 0.0 NW 2 4 1 2 1025.6 1025.8 0.8
19/11:00pm 4.5 2.5 4.5 100 0.0 W 4 6 2 3 1025.8 1026.0 0.8
19/10:30pm 5.4 4.0 5.4 100 0.0 SSW 2 6 1 3 1025.8 1026.0 0.8
19/10:00pm 4.9 3.8 4.9 100 0.0 CALM 0 0 0 0 1025.8 1026.0 0.8
19/09:30pm 5.2 3.7 5.2 100 0.0 W 2 4 1 2 1025.8 1026.0 0.8
19/09:00pm 5.3 3.5 5.3 100 0.0 NNW 4 7 2 4 1025.8 1026.0 0.8
19/08:30pm 5.3 4.2 5.2 99 0.0 CALM 0 0 0 0 1025.9 1026.1 0.8
19/08:00pm 5.6 3.8 5.5 99 0.0 WNW 4 6 2 3 1025.8 1026.0 0.8
19/07:30pm 6.2 4.4 5.6 96 0.3 NNW 4 6 2 3 1025.8 1026.0 0.8
19/07:00pm 6.7 5.9 6.3 97 0.2 CALM 0 2 0 1 1025.8 1026.0 0.8
19/06:30pm 7.1 5.9 6.4 95 0.3 W 2 4 1 2 1025.7 1025.9 0.8
19/06:00pm 7.8 6.4 7.2 96 0.3 WNW 4 6 2 3 1025.5 1025.7 0.8
19/05:30pm 8.1 6.1 7.2 94 0.4 WNW 7 11 4 6 1025.4 1025.6 0.6
19/05:00pm 8.6 5.8 6.9 89 0.8 WNW 11 17 6 9 1025.2 1025.4 0.6
19/04:30pm 9.3 7.3 7.1 86 1.0 W 7 13 4 7 1025.0 1025.2 0.6
19/04:00pm 8.4 5.8 6.0 85 1.1 WNW 9 17 5 9 1024.8 1025.0 0.6
19/03:30pm 9.9 6.8 7.2 83 1.3 W 13 20 7 11 1024.9 1025.1 0.6
19/03:00pm 8.9 7.6 7.7 92 0.6 ESE 4 6 2 3 1024.8 1025.0 0.6
19/02:30pm 10.0 8.3 7.4 84 1.2 NW 6 9 3 5 1024.6 1024.8 0.4
19/02:00pm 8.6 6.7 7.4 92 0.6 NW 7 9 4 5 1024.7 1024.9 0.4
19/01:30pm 8.8 5.3 7.4 91 0.7 W 15 24 8 13 1024.8 1025.0 0.2
19/01:00pm 10.3 7.5 7.0 80 1.6 WNW 11 17 6 9 1024.8 1025.0 0.0
19/12:30pm 9.4 5.3 6.3 81 1.4 WNW 17 24 9 13 1025.1 1025.3 0.0
19/12:00pm 9.2 6.0 6.8 85 1.1 WNW 13 20 7 11 1025.3 1025.5 0.0
19/11:30am 9.7 6.7 7.6 87 1.0 W 13 20 7 11 1025.5 1025.7 0.0
19/11:00am 8.6 5.0 6.6 87 0.9 WNW 15 24 8 13 1025.5 1025.7 0.0
19/10:30am 8.3 4.7 6.6 89 0.8 W 15 24 8 13 1025.5 1025.7 0.0
19/10:00am 8.0 4.3 6.5 90 0.7 WNW 15 22 8 12 1025.3 1025.5 0.0
19/09:30am 7.3 3.9 5.9 91 0.6 WNW 13 19 7 10 1025.1 1025.3 0.0
19/09:00am 6.7 4.6 5.8 94 0.4 WNW 6 9 3 5 1024.8 1025.0 13.8
19/08:30am 5.6 3.4 5.3 98 0.1 WNW 6 9 3 5 1024.6 1024.8 13.8
19/08:00am 5.6 3.3 5.6 100 0.0 W 7 11 4 6 1024.3 1024.5 13.8
19/07:30am 5.6 3.3 5.5 99 0.0 W 7 15 4 8 1024.0 1024.2 13.6
19/07:00am 5.1 2.6 5.0 99 0.0 WNW 7 13 4 7 1023.5 1023.7 13.6
19/06:30am 5.5 3.2 5.5 100 0.0 WNW 7 13 4 7 1023.3 1023.5 13.6
19/06:00am 5.3 2.9 5.3 100 0.0 W 7 13 4 7 1023.1 1023.3 13.4
19/05:30am 5.3 2.5 5.3 100 0.0 NW 9 13 5 7 1022.5 1022.7 13.4
19/05:00am 5.2 2.0 5.2 100 0.0 WNW 11 20 6 11 1022.5 1022.7 13.4
19/04:30am 4.9 2.4 4.9 100 0.0 W 7 11 4 6 1022.4 1022.6 13.4
19/04:00am 5.0 1.8 5.0 100 0.0 WNW 11 15 6 8 1022.4 1022.6 13.4
19/03:30am 4.7 2.4 4.7 100 0.0 WNW 6 9 3 5 1022.5 1022.7 13.4
19/03:00am 4.5 2.0 4.5 100 0.0 WNW 7 9 4 5 1022.3 1022.5 13.4
19/02:30am 5.5 3.1 5.2 98 0.1 W 7 15 4 8 1022.4 1022.6 13.4
19/02:00am 5.5 1.6 5.4 99 0.0 WNW 15 28 8 15 1022.1 1022.3 13.2
19/01:30am 5.5 2.8 5.5 100 0.0 WNW 9 17 5 9 1022.1 1022.3 13.2
19/01:00am 5.2 3.4 5.2 100 0.0 WNW 4 9 2 5 1022.2 1022.4 13.0
19/12:30am 6.1 4.4 6.1 100 0.0 W 4 6 2 3 1022.2 1022.4 13.0
19/12:00am 6.4 3.9 6.4 100 0.0 W 9 15 5 8 1022.2 1022.4 12.8
 
Date/Time
EST
Temp
°C
App
Temp
°C
Dew
Point
°C
Rel
Hum
%
Delta-T
°C
Wind Press
QNH
hPa
Press
MSL
hPa
Rain since
9am
mm
Dir  Spd
km/h
Gust
km/h
Spd
kts
Gust
kts
18/11:30pm 6.2 2.5 6.2 100 0.0 WNW 15 22 8 12 1022.1 1022.3 10.8
18/11:00pm 5.6 3.3 5.6 100 0.0 WNW 7 13 4 7 1021.9 1022.1 9.0
18/10:30pm 5.8 3.0 5.2 96 0.3 WNW 9 17 5 9 1021.6 1021.8 9.0
18/10:00pm 6.6 2.4 5.9 95 0.3 WNW 17 28 9 15 1021.4 1021.6 7.8
18/09:30pm 5.9 2.8 5.5 97 0.2 WNW 11 20 6 11 1020.9 1021.2 7.8
18/09:00pm 5.9 3.3 5.9 100 0.0 WNW 9 17 5 9 1020.6 1020.9 7.8
18/08:30pm 5.7 3.4 5.7 100 0.0 WNW 7 11 4 6 1020.7 1021.0 7.8
18/08:00pm 6.2 4.5 6.1 99 0.0 NW 4 7 2 4 1020.5 1020.8 7.8
18/07:30pm 6.6 4.5 6.6 100 0.0 WNW 7 15 4 8 1020.4 1020.7 7.8
18/07:00pm 6.7 5.1 6.4 98 0.1 NW 4 9 2 5 1020.2 1020.5 6.0
18/06:30pm 6.6 4.7 6.5 99 0.0 NW 6 7 3 4 1020.1 1020.4 6.0
18/06:00pm 6.7 4.2 6.4 98 0.1 NW 9 13 5 7 1019.5 1019.7 6.0
18/05:30pm 7.0 2.4 6.7 98 0.1 W 20 30 11 16 1019.5 1019.7 5.8
18/05:00pm 7.5 4.0 7.2 98 0.1 WNW 15 26 8 14 1019.3 1019.5 5.2
18/04:30pm 7.9 3.7 7.5 97 0.2 W 19 30 10 16 1018.7 1018.9 5.2
18/04:00pm 7.9 4.2 7.8 99 0.0 W 17 28 9 15 1018.0 1018.2 5.2
18/03:30pm 8.1 4.4 8.1 100 0.0 W 17 28 9 15 1017.3 1017.5 5.0
18/03:00pm 7.7 3.4 7.0 95 0.3 W 19 30 10 16 1016.8 1017.0 4.4
18/02:30pm 10.7 6.5 7.6 81 1.5 WNW 19 35 10 19 1015.8 1016.0 1.2
18/02:00pm 10.4 6.7 8.0 85 1.2 WNW 17 26 9 14 1015.9 1016.1 1.2
18/01:30pm 10.6 7.0 8.5 87 1.0 WNW 17 28 9 15 1015.8 1016.0 1.2
18/01:00pm 10.2 6.7 8.6 90 0.8 WNW 17 28 9 15 1016.0 1016.2 1.2
18/12:30pm 9.9 6.5 9.0 94 0.4 WNW 17 28 9 15 1016.3 1016.5 1.2
18/12:00pm 9.6 6.1 8.7 94 0.4 WNW 17 24 9 13 1016.6 1016.8 1.0
18/11:30am 10.4 5.7 7.8 84 1.3 WNW 22 33 12 18 1016.6 1016.8 0.0
18/11:00am 11.4 6.5 7.1 75 2.1 WNW 22 39 12 21 1016.5 1016.7 0.0
18/10:30am 11.5 8.6 8.2 80 1.6 WNW 13 26 7 14 1016.6 1016.8 0.0
18/10:00am 11.6 9.7 7.7 77 1.9 WNW 7 11 4 6 1016.5 1016.7 0.0
18/09:30am 11.9 10.7 8.0 77 1.9 NW 4 6 2 3 1016.3 1016.5 0.0
18/09:00am 11.7 10.2 6.8 72 2.3 N 4 6 2 3 1016.1 1016.3 0.2
18/08:30am 10.7 8.8 7.4 80 1.6 N 7 15 4 8 1016.0 1016.2 0.2
18/08:00am 8.0 6.8 6.6 91 0.6 NNE 2 6 1 3 1016.2 1016.4 0.2
18/07:30am 8.4 6.5 6.9 90 0.7 NNE 6 9 3 5 1016.3 1016.5 0.0
18/07:00am 7.0 6.0 5.8 92 0.5 CALM 0 2 0 1 1016.6 1016.8 0.0
18/06:30am 7.0 6.0 5.6 91 0.6 CALM 0 0 0 0 1016.4 1016.6 0.0
18/06:00am 7.6 6.6 5.7 88 0.9 CALM 0 4 0 2 1016.5 1016.7 0.0
18/05:30am 6.2 4.0 5.2 93 0.4 E 6 7 3 4 1016.3 1016.5 0.0
18/05:00am 6.3 4.3 4.3 87 0.9 ESE 4 7 2 4 1016.2 1016.4 0.0
18/04:30am 10.1 8.4 5.9 75 1.9 NNW 4 17 2 9 1016.3 1016.5 0.0
18/04:00am 10.8 7.8 5.8 71 2.3 NNE 11 20 6 11 1016.5 1016.7 0.0
18/03:30am 7.2 5.2 6.9 98 0.1 NNE 7 15 4 8 1017.0 1017.2 0.0
18/03:00am 4.9 3.0 4.9 100 0.0 ENE 4 6 2 3 1017.7 1017.9 0.0
18/02:30am 4.8 3.6 4.4 97 0.2 CALM 0 4 0 2 1018.1 1018.3 0.0
18/02:00am 5.2 3.6 4.5 95 0.3 S 2 4 1 2 1018.0 1018.2 0.0
18/01:30am 6.2 4.3 4.8 91 0.6 SE 4 6 2 3 1018.0 1018.2 0.0
18/01:00am 6.9 5.0 4.9 87 0.9 ESE 4 6 2 3 1018.3 1018.5 0.0
18/12:30am 8.6 6.8 5.2 79 1.5 E 4 6 2 3 1018.5 1018.7 0.0
18/12:00am 9.2 6.9 5.6 78 1.6 NNE 7 11 4 6 1018.7 1018.9 0.0
 
Date/Time
EST
Temp
°C
App
Temp
°C
Dew
Point
°C
Rel
Hum
%
Delta-T
°C
Wind Press
QNH
hPa
Press
MSL
hPa
Rain since
9am
mm
Dir  Spd
km/h
Gust
km/h
Spd
kts
Gust
kts
17/11:30pm 9.2 6.9 5.0 75 1.9 NNE 6 9 3 5 1019.2 1019.4 0.0
17/11:00pm 8.6 6.6 6.2 85 1.1 NNE 6 11 3 6 1019.5 1019.7 0.0
17/10:30pm 8.8 6.6 5.2 78 1.6 N 6 9 3 5 1019.8 1020.0 0.0
17/10:00pm 6.4 4.6 5.4 93 0.4 E 4 6 2 3 1019.9 1020.1 0.0

Other formats

Comma delimited format used in spreadsheet applications
http://www.bom.gov.au/fwo/IDV60801/IDV60801.99806.axf

JavaScript Object Notation format (JSON) in row-major order
http://www.bom.gov.au/fwo/IDV60801/IDV60801.99806.json

Data quality

Most of these data are generated automatically and are frequently updated. Quality checks on data are not normally performed. It is possible for incorrect values to appear. Refer to information at About Latest Weather Observations and please check the disclaimer before using these data.